sensor_id;sensor_type;location;lat;lon;timestamp;P1;durP1;ratioP1;P2;durP2;ratioP2
46613;SDS011;32338;50.430;6.806;2023-02-15T00:01:24;25.60;;;12.82;;
46613;SDS011;32338;50.430;6.806;2023-02-15T00:03:52;24.55;;;11.93;;
46613;SDS011;32338;50.430;6.806;2023-02-15T00:06:18;23.20;;;12.13;;
46613;SDS011;32338;50.430;6.806;2023-02-15T00:08:45;20.05;;;11.63;;
46613;SDS011;32338;50.430;6.806;2023-02-15T00:11:12;27.20;;;13.13;;
46613;SDS011;32338;50.430;6.806;2023-02-15T00:13:40;23.92;;;12.73;;
46613;SDS011;32338;50.430;6.806;2023-02-15T00:16:08;29.88;;;13.85;;
46613;SDS011;32338;50.430;6.806;2023-02-15T00:18:36;29.15;;;15.32;;
46613;SDS011;32338;50.430;6.806;2023-02-15T00:21:06;26.05;;;14.15;;
46613;SDS011;32338;50.430;6.806;2023-02-15T00:23:34;27.77;;;15.02;;
46613;SDS011;32338;50.430;6.806;2023-02-15T00:26:04;25.58;;;13.45;;
46613;SDS011;32338;50.430;6.806;2023-02-15T00:28:32;27.02;;;14.15;;
46613;SDS011;32338;50.430;6.806;2023-02-15T00:31:02;23.77;;;13.55;;
46613;SDS011;32338;50.430;6.806;2023-02-15T00:33:30;32.42;;;15.20;;
46613;SDS011;32338;50.430;6.806;2023-02-15T00:35:57;30.08;;;14.60;;
46613;SDS011;32338;50.430;6.806;2023-02-15T00:38:25;28.38;;;13.73;;
46613;SDS011;32338;50.430;6.806;2023-02-15T00:40:52;28.90;;;14.63;;
46613;SDS011;32338;50.430;6.806;2023-02-15T00:43:19;30.20;;;15.15;;
46613;SDS011;32338;50.430;6.806;2023-02-15T00:45:46;29.52;;;14.95;;
46613;SDS011;32338;50.430;6.806;2023-02-15T00:48:13;28.67;;;14.85;;
46613;SDS011;32338;50.430;6.806;2023-02-15T00:50:39;29.10;;;15.18;;
46613;SDS011;32338;50.430;6.806;2023-02-15T00:53:06;28.55;;;14.60;;
46613;SDS011;32338;50.430;6.806;2023-02-15T00:55:34;28.08;;;14.90;;
46613;SDS011;32338;50.430;6.806;2023-02-15T00:58:02;30.25;;;14.38;;
46613;SDS011;32338;50.430;6.806;2023-02-15T01:00:28;31.10;;;15.35;;
46613;SDS011;32338;50.430;6.806;2023-02-15T01:02:55;28.42;;;15.68;;
46613;SDS011;32338;50.430;6.806;2023-02-15T01:05:21;27.40;;;13.90;;
46613;SDS011;32338;50.430;6.806;2023-02-15T01:07:48;30.13;;;14.70;;
46613;SDS011;32338;50.430;6.806;2023-02-15T01:10:15;32.13;;;15.45;;
46613;SDS011;32338;50.430;6.806;2023-02-15T01:12:43;29.58;;;14.77;;
46613;SDS011;32338;50.430;6.806;2023-02-15T01:15:10;28.95;;;14.32;;
46613;SDS011;32338;50.430;6.806;2023-02-15T01:17:37;32.88;;;14.55;;
46613;SDS011;32338;50.430;6.806;2023-02-15T01:20:04;29.67;;;14.95;;
46613;SDS011;32338;50.430;6.806;2023-02-15T01:22:32;37.80;;;15.27;;
46613;SDS011;32338;50.430;6.806;2023-02-15T01:24:59;31.23;;;15.13;;
46613;SDS011;32338;50.430;6.806;2023-02-15T01:27:25;30.25;;;15.23;;
46613;SDS011;32338;50.430;6.806;2023-02-15T01:29:56;34.25;;;16.05;;
46613;SDS011;32338;50.430;6.806;2023-02-15T01:32:23;30.10;;;15.05;;
46613;SDS011;32338;50.430;6.806;2023-02-15T01:34:50;32.47;;;15.77;;
46613;SDS011;32338;50.430;6.806;2023-02-15T01:37:16;31.40;;;16.63;;
46613;SDS011;32338;50.430;6.806;2023-02-15T01:39:43;37.17;;;15.80;;
46613;SDS011;32338;50.430;6.806;2023-02-15T01:42:10;34.75;;;17.27;;
46613;SDS011;32338;50.430;6.806;2023-02-15T01:44:46;34.38;;;17.02;;
46613;SDS011;32338;50.430;6.806;2023-02-15T01:47:16;30.77;;;16.17;;
46613;SDS011;32338;50.430;6.806;2023-02-15T01:49:46;35.75;;;17.13;;
46613;SDS011;32338;50.430;6.806;2023-02-15T01:52:14;34.28;;;17.02;;
46613;SDS011;32338;50.430;6.806;2023-02-15T01:54:44;33.70;;;16.65;;
46613;SDS011;32338;50.430;6.806;2023-02-15T01:57:14;39.88;;;17.50;;
46613;SDS011;32338;50.430;6.806;2023-02-15T01:59:46;34.80;;;17.38;;
46613;SDS011;32338;50.430;6.806;2023-02-15T02:02:20;43.20;;;17.70;;
46613;SDS011;32338;50.430;6.806;2023-02-15T02:04:50;38.25;;;18.25;;
46613;SDS011;32338;50.430;6.806;2023-02-15T02:07:19;38.72;;;18.23;;
46613;SDS011;32338;50.430;6.806;2023-02-15T02:09:49;40.55;;;18.42;;
46613;SDS011;32338;50.430;6.806;2023-02-15T02:12:16;37.25;;;17.88;;
46613;SDS011;32338;50.430;6.806;2023-02-15T02:14:45;34.72;;;17.00;;
46613;SDS011;32338;50.430;6.806;2023-02-15T02:17:15;39.15;;;18.02;;
46613;SDS011;32338;50.430;6.806;2023-02-15T02:23:05;42.42;;;18.42;;
46613;SDS011;32338;50.430;6.806;2023-02-15T02:25:59;40.25;;;18.52;;
46613;SDS011;32338;50.430;6.806;2023-02-15T02:29:00;33.50;;;16.38;;
46613;SDS011;32338;50.430;6.806;2023-02-15T02:31:52;45.88;;;19.00;;
46613;SDS011;32338;50.430;6.806;2023-02-15T02:34:41;44.80;;;19.25;;
46613;SDS011;32338;50.430;6.806;2023-02-15T02:37:14;50.92;;;19.75;;
46613;SDS011;32338;50.430;6.806;2023-02-15T02:39:49;32.95;;;14.50;;
46613;SDS011;32338;50.430;6.806;2023-02-15T02:42:22;41.05;;;18.13;;
46613;SDS011;32338;50.430;6.806;2023-02-15T02:44:56;39.72;;;18.05;;
46613;SDS011;32338;50.430;6.806;2023-02-15T02:47:30;42.78;;;17.98;;
46613;SDS011;32338;50.430;6.806;2023-02-15T02:50:07;41.30;;;19.67;;
46613;SDS011;32338;50.430;6.806;2023-02-15T02:52:39;44.22;;;20.15;;
46613;SDS011;32338;50.430;6.806;2023-02-15T02:55:09;44.63;;;19.45;;
46613;SDS011;32338;50.430;6.806;2023-02-15T02:57:41;41.30;;;18.50;;
46613;SDS011;32338;50.430;6.806;2023-02-15T03:00:14;39.63;;;18.95;;
46613;SDS011;32338;50.430;6.806;2023-02-15T03:02:43;40.30;;;18.83;;
46613;SDS011;32338;50.430;6.806;2023-02-15T03:05:15;37.45;;;17.85;;
46613;SDS011;32338;50.430;6.806;2023-02-15T03:07:46;39.47;;;17.95;;
46613;SDS011;32338;50.430;6.806;2023-02-15T03:10:15;38.42;;;18.50;;
46613;SDS011;32338;50.430;6.806;2023-02-15T03:12:44;43.25;;;18.48;;
46613;SDS011;32338;50.430;6.806;2023-02-15T03:15:12;38.75;;;18.23;;
46613;SDS011;32338;50.430;6.806;2023-02-15T03:17:43;37.17;;;17.95;;
46613;SDS011;32338;50.430;6.806;2023-02-15T03:20:16;40.50;;;18.02;;
46613;SDS011;32338;50.430;6.806;2023-02-15T03:22:51;41.58;;;18.20;;
46613;SDS011;32338;50.430;6.806;2023-02-15T03:25:22;40.08;;;19.58;;
46613;SDS011;32338;50.430;6.806;2023-02-15T03:27:53;39.67;;;18.45;;
46613;SDS011;32338;50.430;6.806;2023-02-15T03:30:24;37.97;;;18.42;;
46613;SDS011;32338;50.430;6.806;2023-02-15T03:32:53;45.45;;;18.88;;
46613;SDS011;32338;50.430;6.806;2023-02-15T03:35:24;43.30;;;19.75;;
46613;SDS011;32338;50.430;6.806;2023-02-15T03:37:57;38.47;;;18.25;;
46613;SDS011;32338;50.430;6.806;2023-02-15T03:40:29;44.17;;;19.27;;
46613;SDS011;32338;50.430;6.806;2023-02-15T03:43:18;44.90;;;20.35;;
46613;SDS011;32338;50.430;6.806;2023-02-15T03:45:55;44.80;;;19.23;;
46613;SDS011;32338;50.430;6.806;2023-02-15T03:48:28;38.90;;;17.58;;
46613;SDS011;32338;50.430;6.806;2023-02-15T03:51:00;43.25;;;20.42;;
46613;SDS011;32338;50.430;6.806;2023-02-15T03:53:47;35.22;;;17.67;;
46613;SDS011;32338;50.430;6.806;2023-02-15T03:56:17;38.88;;;18.52;;
46613;SDS011;32338;50.430;6.806;2023-02-15T03:58:44;39.05;;;18.38;;
46613;SDS011;32338;50.430;6.806;2023-02-15T04:01:32;47.10;;;18.73;;
46613;SDS011;32338;50.430;6.806;2023-02-15T04:04:36;44.92;;;18.58;;
46613;SDS011;32338;50.430;6.806;2023-02-15T04:07:07;41.65;;;18.70;;
46613;SDS011;32338;50.430;6.806;2023-02-15T04:09:35;38.15;;;17.60;;
46613;SDS011;32338;50.430;6.806;2023-02-15T04:12:19;38.53;;;18.95;;
46613;SDS011;32338;50.430;6.806;2023-02-15T04:14:46;39.05;;;18.55;;
46613;SDS011;32338;50.430;6.806;2023-02-15T04:17:31;43.90;;;19.70;;
46613;SDS011;32338;50.430;6.806;2023-02-15T04:20:00;41.28;;;19.33;;
46613;SDS011;32338;50.430;6.806;2023-02-15T04:22:44;45.03;;;19.42;;
46613;SDS011;32338;50.430;6.806;2023-02-15T04:25:29;45.28;;;20.33;;
46613;SDS011;32338;50.430;6.806;2023-02-15T04:27:55;45.30;;;19.40;;
46613;SDS011;32338;50.430;6.806;2023-02-15T04:30:24;41.60;;;19.80;;
46613;SDS011;32338;50.430;6.806;2023-02-15T04:32:51;44.22;;;18.67;;
46613;SDS011;32338;50.430;6.806;2023-02-15T04:35:21;45.42;;;18.83;;
46613;SDS011;32338;50.430;6.806;2023-02-15T04:37:48;42.22;;;19.83;;
46613;SDS011;32338;50.430;6.806;2023-02-15T04:40:15;41.92;;;18.42;;
46613;SDS011;32338;50.430;6.806;2023-02-15T04:42:48;49.20;;;20.98;;
46613;SDS011;32338;50.430;6.806;2023-02-15T04:45:16;47.00;;;20.63;;
46613;SDS011;32338;50.430;6.806;2023-02-15T04:47:43;38.58;;;18.55;;
46613;SDS011;32338;50.430;6.806;2023-02-15T04:50:10;49.22;;;20.63;;
46613;SDS011;32338;50.430;6.806;2023-02-15T04:52:39;42.15;;;19.42;;
46613;SDS011;32338;50.430;6.806;2023-02-15T04:55:06;48.15;;;21.90;;
46613;SDS011;32338;50.430;6.806;2023-02-15T04:57:34;47.00;;;21.63;;
46613;SDS011;32338;50.430;6.806;2023-02-15T05:00:03;53.03;;;20.70;;
46613;SDS011;32338;50.430;6.806;2023-02-15T05:02:31;49.95;;;21.17;;
46613;SDS011;32338;50.430;6.806;2023-02-15T05:04:57;49.45;;;22.60;;
46613;SDS011;32338;50.430;6.806;2023-02-15T05:07:24;49.67;;;21.38;;
46613;SDS011;32338;50.430;6.806;2023-02-15T05:09:55;51.53;;;22.73;;
46613;SDS011;32338;50.430;6.806;2023-02-15T05:12:22;49.95;;;22.42;;
46613;SDS011;32338;50.430;6.806;2023-02-15T05:14:49;56.80;;;22.75;;
46613;SDS011;32338;50.430;6.806;2023-02-15T05:17:16;48.15;;;22.15;;
46613;SDS011;32338;50.430;6.806;2023-02-15T05:19:43;51.13;;;21.77;;
46613;SDS011;32338;50.430;6.806;2023-02-15T05:22:10;52.20;;;21.33;;
46613;SDS011;32338;50.430;6.806;2023-02-15T05:24:37;47.38;;;21.70;;
46613;SDS011;32338;50.430;6.806;2023-02-15T05:27:22;52.47;;;21.95;;
46613;SDS011;32338;50.430;6.806;2023-02-15T05:30:09;52.83;;;22.55;;
46613;SDS011;32338;50.430;6.806;2023-02-15T05:32:39;59.70;;;22.38;;
46613;SDS011;32338;50.430;6.806;2023-02-15T05:35:06;56.90;;;22.83;;
46613;SDS011;32338;50.430;6.806;2023-02-15T05:37:34;51.38;;;22.55;;
46613;SDS011;32338;50.430;6.806;2023-02-15T05:40:00;48.45;;;21.70;;
46613;SDS011;32338;50.430;6.806;2023-02-15T05:42:29;47.00;;;22.50;;
46613;SDS011;32338;50.430;6.806;2023-02-15T05:44:55;47.58;;;21.38;;
46613;SDS011;32338;50.430;6.806;2023-02-15T05:47:22;52.40;;;21.73;;
46613;SDS011;32338;50.430;6.806;2023-02-15T05:49:49;47.05;;;21.55;;
46613;SDS011;32338;50.430;6.806;2023-02-15T05:52:16;51.75;;;21.70;;
46613;SDS011;32338;50.430;6.806;2023-02-15T05:54:42;44.78;;;21.10;;
46613;SDS011;32338;50.430;6.806;2023-02-15T05:57:09;50.75;;;22.63;;
46613;SDS011;32338;50.430;6.806;2023-02-15T05:59:37;49.50;;;21.98;;
46613;SDS011;32338;50.430;6.806;2023-02-15T06:02:04;45.55;;;21.42;;
46613;SDS011;32338;50.430;6.806;2023-02-15T06:04:31;50.95;;;22.77;;
46613;SDS011;32338;50.430;6.806;2023-02-15T06:06:58;47.47;;;21.92;;
46613;SDS011;32338;50.430;6.806;2023-02-15T06:09:25;51.40;;;21.45;;
46613;SDS011;32338;50.430;6.806;2023-02-15T06:11:52;49.08;;;21.25;;
46613;SDS011;32338;50.430;6.806;2023-02-15T06:14:19;52.45;;;23.60;;
46613;SDS011;32338;50.430;6.806;2023-02-15T06:16:47;52.42;;;23.00;;
46613;SDS011;32338;50.430;6.806;2023-02-15T06:19:14;55.92;;;23.02;;
46613;SDS011;32338;50.430;6.806;2023-02-15T06:21:41;54.03;;;22.65;;
46613;SDS011;32338;50.430;6.806;2023-02-15T06:24:08;47.72;;;21.48;;
46613;SDS011;32338;50.430;6.806;2023-02-15T06:26:35;54.65;;;23.27;;
46613;SDS011;32338;50.430;6.806;2023-02-15T06:29:02;51.95;;;21.90;;
46613;SDS011;32338;50.430;6.806;2023-02-15T06:31:29;50.70;;;21.73;;
46613;SDS011;32338;50.430;6.806;2023-02-15T06:33:58;51.42;;;22.05;;
46613;SDS011;32338;50.430;6.806;2023-02-15T06:36:27;49.22;;;22.25;;
46613;SDS011;32338;50.430;6.806;2023-02-15T06:38:56;52.03;;;21.80;;
46613;SDS011;32338;50.430;6.806;2023-02-15T06:41:25;45.25;;;21.13;;
46613;SDS011;32338;50.430;6.806;2023-02-15T06:43:52;45.03;;;21.02;;
46613;SDS011;32338;50.430;6.806;2023-02-15T06:46:19;51.42;;;22.55;;
46613;SDS011;32338;50.430;6.806;2023-02-15T06:48:45;53.33;;;23.98;;
46613;SDS011;32338;50.430;6.806;2023-02-15T06:51:14;58.67;;;25.63;;
46613;SDS011;32338;50.430;6.806;2023-02-15T06:53:41;53.83;;;24.83;;
46613;SDS011;32338;50.430;6.806;2023-02-15T06:56:08;51.70;;;23.38;;
46613;SDS011;32338;50.430;6.806;2023-02-15T06:58:36;47.78;;;22.35;;
46613;SDS011;32338;50.430;6.806;2023-02-15T07:01:04;51.35;;;21.50;;
46613;SDS011;32338;50.430;6.806;2023-02-15T07:03:32;54.95;;;22.42;;
46613;SDS011;32338;50.430;6.806;2023-02-15T07:06:00;51.42;;;20.55;;
46613;SDS011;32338;50.430;6.806;2023-02-15T07:08:29;49.10;;;22.40;;
46613;SDS011;32338;50.430;6.806;2023-02-15T07:10:58;52.35;;;22.08;;
46613;SDS011;32338;50.430;6.806;2023-02-15T07:13:45;47.90;;;21.23;;
46613;SDS011;32338;50.430;6.806;2023-02-15T07:16:12;47.85;;;20.95;;
46613;SDS011;32338;50.430;6.806;2023-02-15T07:18:39;50.85;;;22.23;;
46613;SDS011;32338;50.430;6.806;2023-02-15T07:21:06;45.80;;;20.42;;
46613;SDS011;32338;50.430;6.806;2023-02-15T07:23:37;46.92;;;20.25;;
46613;SDS011;32338;50.430;6.806;2023-02-15T07:26:05;50.22;;;22.77;;
46613;SDS011;32338;50.430;6.806;2023-02-15T07:28:33;56.15;;;22.70;;
46613;SDS011;32338;50.430;6.806;2023-02-15T07:31:00;53.95;;;24.15;;
46613;SDS011;32338;50.430;6.806;2023-02-15T07:33:28;48.00;;;21.13;;
46613;SDS011;32338;50.430;6.806;2023-02-15T07:35:57;46.05;;;21.42;;
46613;SDS011;32338;50.430;6.806;2023-02-15T07:38:27;50.63;;;21.35;;
46613;SDS011;32338;50.430;6.806;2023-02-15T07:41:00;52.95;;;22.48;;
46613;SDS011;32338;50.430;6.806;2023-02-15T07:43:28;54.80;;;22.90;;
46613;SDS011;32338;50.430;6.806;2023-02-15T07:45:58;47.58;;;21.00;;
46613;SDS011;32338;50.430;6.806;2023-02-15T07:48:25;50.20;;;22.00;;
46613;SDS011;32338;50.430;6.806;2023-02-15T07:50:52;46.97;;;22.55;;
46613;SDS011;32338;50.430;6.806;2023-02-15T07:53:21;50.70;;;22.15;;
46613;SDS011;32338;50.430;6.806;2023-02-15T07:55:48;45.80;;;21.85;;
46613;SDS011;32338;50.430;6.806;2023-02-15T07:58:17;45.83;;;21.88;;
46613;SDS011;32338;50.430;6.806;2023-02-15T08:00:43;50.17;;;22.08;;
46613;SDS011;32338;50.430;6.806;2023-02-15T08:03:23;46.97;;;20.58;;
46613;SDS011;32338;50.430;6.806;2023-02-15T08:05:55;50.88;;;20.63;;
46613;SDS011;32338;50.430;6.806;2023-02-15T08:08:25;46.67;;;18.58;;
46613;SDS011;32338;50.430;6.806;2023-02-15T08:10:59;45.53;;;19.85;;
46613;SDS011;32338;50.430;6.806;2023-02-15T08:13:46;43.45;;;19.73;;
46613;SDS011;32338;50.430;6.806;2023-02-15T08:16:21;41.55;;;18.83;;
46613;SDS011;32338;50.430;6.806;2023-02-15T08:18:49;40.50;;;18.33;;
46613;SDS011;32338;50.430;6.806;2023-02-15T08:21:16;42.38;;;18.42;;
46613;SDS011;32338;50.430;6.806;2023-02-15T08:23:43;41.55;;;17.02;;
46613;SDS011;32338;50.430;6.806;2023-02-15T08:26:12;40.97;;;18.85;;
46613;SDS011;32338;50.430;6.806;2023-02-15T08:28:42;33.97;;;15.70;;
46613;SDS011;32338;50.430;6.806;2023-02-15T08:31:11;44.63;;;20.33;;
46613;SDS011;32338;50.430;6.806;2023-02-15T08:33:40;46.00;;;21.73;;
46613;SDS011;32338;50.430;6.806;2023-02-15T08:36:08;47.45;;;22.67;;
46613;SDS011;32338;50.430;6.806;2023-02-15T08:38:36;41.85;;;19.80;;
46613;SDS011;32338;50.430;6.806;2023-02-15T08:41:13;45.88;;;19.73;;
46613;SDS011;32338;50.430;6.806;2023-02-15T08:43:42;39.90;;;19.90;;
46613;SDS011;32338;50.430;6.806;2023-02-15T08:46:11;43.95;;;20.48;;
46613;SDS011;32338;50.430;6.806;2023-02-15T08:48:39;45.25;;;21.50;;
46613;SDS011;32338;50.430;6.806;2023-02-15T08:51:07;40.75;;;21.00;;
46613;SDS011;32338;50.430;6.806;2023-02-15T08:53:37;42.47;;;19.98;;
46613;SDS011;32338;50.430;6.806;2023-02-15T08:56:05;48.30;;;20.65;;
46613;SDS011;32338;50.430;6.806;2023-02-15T08:58:32;44.70;;;21.33;;
46613;SDS011;32338;50.430;6.806;2023-02-15T09:01:00;49.53;;;22.60;;
46613;SDS011;32338;50.430;6.806;2023-02-15T09:03:31;46.97;;;21.92;;
46613;SDS011;32338;50.430;6.806;2023-02-15T09:05:59;45.55;;;22.20;;
46613;SDS011;32338;50.430;6.806;2023-02-15T09:08:28;42.15;;;20.73;;
46613;SDS011;32338;50.430;6.806;2023-02-15T09:11:04;42.42;;;20.00;;
46613;SDS011;32338;50.430;6.806;2023-02-15T09:13:31;45.63;;;19.77;;
46613;SDS011;32338;50.430;6.806;2023-02-15T09:15:59;44.13;;;20.30;;
46613;SDS011;32338;50.430;6.806;2023-02-15T09:18:26;42.95;;;20.15;;
46613;SDS011;32338;50.430;6.806;2023-02-15T09:21:04;43.47;;;19.73;;
46613;SDS011;32338;50.430;6.806;2023-02-15T09:23:32;37.85;;;20.40;;
46613;SDS011;32338;50.430;6.806;2023-02-15T09:26:01;39.60;;;19.92;;
46613;SDS011;32338;50.430;6.806;2023-02-15T09:28:29;45.65;;;21.85;;
46613;SDS011;32338;50.430;6.806;2023-02-15T09:31:03;38.92;;;19.67;;
46613;SDS011;32338;50.430;6.806;2023-02-15T09:33:31;40.10;;;20.52;;
46613;SDS011;32338;50.430;6.806;2023-02-15T09:35:59;42.92;;;19.98;;
46613;SDS011;32338;50.430;6.806;2023-02-15T09:38:27;39.30;;;19.92;;
46613;SDS011;32338;50.430;6.806;2023-02-15T09:40:57;37.05;;;19.65;;
46613;SDS011;32338;50.430;6.806;2023-02-15T09:43:34;33.70;;;16.98;;
46613;SDS011;32338;50.430;6.806;2023-02-15T09:46:12;30.05;;;16.20;;
46613;SDS011;32338;50.430;6.806;2023-02-15T09:48:49;26.25;;;13.55;;
46613;SDS011;32338;50.430;6.806;2023-02-15T09:51:27;26.52;;;13.07;;
46613;SDS011;32338;50.430;6.806;2023-02-15T09:54:06;26.27;;;12.02;;
46613;SDS011;32338;50.430;6.806;2023-02-15T09:56:42;24.63;;;12.15;;
46613;SDS011;32338;50.430;6.806;2023-02-15T09:59:16;24.23;;;11.65;;
46613;SDS011;32338;50.430;6.806;2023-02-15T10:01:50;22.92;;;10.80;;
46613;SDS011;32338;50.430;6.806;2023-02-15T10:04:29;24.65;;;11.70;;
46613;SDS011;32338;50.430;6.806;2023-02-15T10:07:09;22.95;;;10.70;;
46613;SDS011;32338;50.430;6.806;2023-02-15T10:09:55;24.67;;;11.38;;
46613;SDS011;32338;50.430;6.806;2023-02-15T10:12:41;23.50;;;10.60;;
46613;SDS011;32338;50.430;6.806;2023-02-15T10:15:28;23.95;;;10.98;;
46613;SDS011;32338;50.430;6.806;2023-02-15T10:18:05;24.42;;;11.90;;
46613;SDS011;32338;50.430;6.806;2023-02-15T10:20:44;27.40;;;12.07;;
46613;SDS011;32338;50.430;6.806;2023-02-15T10:23:25;21.10;;;11.10;;
46613;SDS011;32338;50.430;6.806;2023-02-15T10:26:17;25.05;;;12.73;;
46613;SDS011;32338;50.430;6.806;2023-02-15T10:28:46;23.48;;;13.38;;
46613;SDS011;32338;50.430;6.806;2023-02-15T10:31:18;30.35;;;14.00;;
46613;SDS011;32338;50.430;6.806;2023-02-15T10:33:51;27.25;;;13.45;;
46613;SDS011;32338;50.430;6.806;2023-02-15T10:36:32;25.88;;;13.85;;
46613;SDS011;32338;50.430;6.806;2023-02-15T10:39:09;27.60;;;14.02;;
46613;SDS011;32338;50.430;6.806;2023-02-15T10:41:50;26.27;;;13.85;;
46613;SDS011;32338;50.430;6.806;2023-02-15T10:50:06;24.48;;;13.32;;
46613;SDS011;32338;50.430;6.806;2023-02-15T10:52:50;24.75;;;14.02;;
46613;SDS011;32338;50.430;6.806;2023-02-15T10:55:35;28.13;;;13.88;;
46613;SDS011;32338;50.430;6.806;2023-02-15T10:58:15;27.95;;;14.38;;
46613;SDS011;32338;50.430;6.806;2023-02-15T11:00:50;28.95;;;14.40;;
46613;SDS011;32338;50.430;6.806;2023-02-15T11:03:33;22.40;;;12.32;;
46613;SDS011;32338;50.430;6.806;2023-02-15T11:06:08;21.80;;;11.48;;
46613;SDS011;32338;50.430;6.806;2023-02-15T11:08:38;21.60;;;11.43;;
46613;SDS011;32338;50.430;6.806;2023-02-15T11:11:09;20.35;;;11.38;;
46613;SDS011;32338;50.430;6.806;2023-02-15T11:13:42;29.25;;;13.43;;
46613;SDS011;32338;50.430;6.806;2023-02-15T11:16:15;19.17;;;10.93;;
46613;SDS011;32338;50.430;6.806;2023-02-15T11:18:46;22.83;;;11.35;;
46613;SDS011;32338;50.430;6.806;2023-02-15T11:21:19;21.30;;;10.18;;
46613;SDS011;32338;50.430;6.806;2023-02-15T11:23:49;19.85;;;9.70;;
46613;SDS011;32338;50.430;6.806;2023-02-15T11:26:19;17.58;;;9.48;;
46613;SDS011;32338;50.430;6.806;2023-02-15T11:28:53;17.88;;;9.02;;
46613;SDS011;32338;50.430;6.806;2023-02-15T11:31:23;18.27;;;9.50;;
46613;SDS011;32338;50.430;6.806;2023-02-15T11:33:52;17.80;;;9.48;;
46613;SDS011;32338;50.430;6.806;2023-02-15T11:36:24;21.40;;;9.77;;
46613;SDS011;32338;50.430;6.806;2023-02-15T11:38:56;18.67;;;9.10;;
46613;SDS011;32338;50.430;6.806;2023-02-15T11:41:27;20.23;;;11.32;;
46613;SDS011;32338;50.430;6.806;2023-02-15T11:43:58;16.23;;;9.05;;
46613;SDS011;32338;50.430;6.806;2023-02-15T11:46:32;18.13;;;8.85;;
46613;SDS011;32338;50.430;6.806;2023-02-15T11:48:59;18.20;;;8.40;;
46613;SDS011;32338;50.430;6.806;2023-02-15T11:51:25;21.05;;;8.75;;
46613;SDS011;32338;50.430;6.806;2023-02-15T11:53:54;13.93;;;8.27;;
46613;SDS011;32338;50.430;6.806;2023-02-15T11:56:22;14.65;;;7.95;;
46613;SDS011;32338;50.430;6.806;2023-02-15T11:58:51;15.02;;;8.30;;
46613;SDS011;32338;50.430;6.806;2023-02-15T12:01:27;15.70;;;8.73;;
46613;SDS011;32338;50.430;6.806;2023-02-15T12:03:58;17.63;;;8.43;;
46613;SDS011;32338;50.430;6.806;2023-02-15T12:06:29;13.93;;;8.32;;
46613;SDS011;32338;50.430;6.806;2023-02-15T12:09:01;14.98;;;8.82;;
46613;SDS011;32338;50.430;6.806;2023-02-15T12:11:33;16.10;;;8.48;;
46613;SDS011;32338;50.430;6.806;2023-02-15T12:14:02;18.17;;;8.65;;
46613;SDS011;32338;50.430;6.806;2023-02-15T12:16:34;16.83;;;9.07;;
46613;SDS011;32338;50.430;6.806;2023-02-15T12:19:11;17.48;;;8.55;;
46613;SDS011;32338;50.430;6.806;2023-02-15T12:21:49;16.92;;;9.13;;
46613;SDS011;32338;50.430;6.806;2023-02-15T12:24:18;20.05;;;10.13;;
46613;SDS011;32338;50.430;6.806;2023-02-15T12:26:55;19.90;;;9.52;;
46613;SDS011;32338;50.430;6.806;2023-02-15T12:29:25;17.10;;;9.68;;
46613;SDS011;32338;50.430;6.806;2023-02-15T12:31:57;16.50;;;9.70;;
46613;SDS011;32338;50.430;6.806;2023-02-15T12:34:26;19.65;;;10.07;;
46613;SDS011;32338;50.430;6.806;2023-02-15T12:37:07;16.77;;;10.23;;
46613;SDS011;32338;50.430;6.806;2023-02-15T12:39:36;15.98;;;9.75;;
46613;SDS011;32338;50.430;6.806;2023-02-15T12:42:04;21.13;;;10.57;;
46613;SDS011;32338;50.430;6.806;2023-02-15T12:44:40;19.38;;;10.02;;
46613;SDS011;32338;50.430;6.806;2023-02-15T12:47:21;21.48;;;10.23;;
46613;SDS011;32338;50.430;6.806;2023-02-15T12:50:04;21.08;;;10.55;;
46613;SDS011;32338;50.430;6.806;2023-02-15T12:52:51;18.30;;;9.63;;
46613;SDS011;32338;50.430;6.806;2023-02-15T12:55:33;20.75;;;11.02;;
46613;SDS011;32338;50.430;6.806;2023-02-15T12:58:06;21.70;;;10.43;;
46613;SDS011;32338;50.430;6.806;2023-02-15T13:00:34;22.30;;;11.80;;
46613;SDS011;32338;50.430;6.806;2023-02-15T13:03:03;23.08;;;11.38;;
46613;SDS011;32338;50.430;6.806;2023-02-15T13:05:32;20.80;;;11.93;;
46613;SDS011;32338;50.430;6.806;2023-02-15T13:08:02;20.30;;;11.73;;
46613;SDS011;32338;50.430;6.806;2023-02-15T13:10:36;20.25;;;10.85;;
46613;SDS011;32338;50.430;6.806;2023-02-15T13:13:09;18.55;;;10.52;;
46613;SDS011;32338;50.430;6.806;2023-02-15T13:15:38;19.92;;;11.43;;
46613;SDS011;32338;50.430;6.806;2023-02-15T13:18:12;22.00;;;11.13;;
46613;SDS011;32338;50.430;6.806;2023-02-15T13:20:41;21.48;;;11.18;;
46613;SDS011;32338;50.430;6.806;2023-02-15T13:23:13;21.38;;;11.27;;
46613;SDS011;32338;50.430;6.806;2023-02-15T13:25:52;19.45;;;11.18;;
46613;SDS011;32338;50.430;6.806;2023-02-15T13:28:22;22.75;;;11.23;;
46613;SDS011;32338;50.430;6.806;2023-02-15T13:30:52;23.63;;;11.77;;
46613;SDS011;32338;50.430;6.806;2023-02-15T13:33:22;23.05;;;12.38;;
46613;SDS011;32338;50.430;6.806;2023-02-15T13:35:56;19.67;;;10.98;;
46613;SDS011;32338;50.430;6.806;2023-02-15T13:41:17;19.95;;;11.32;;
46613;SDS011;32338;50.430;6.806;2023-02-15T13:43:52;23.17;;;11.35;;
46613;SDS011;32338;50.430;6.806;2023-02-15T13:46:32;22.30;;;12.27;;
46613;SDS011;32338;50.430;6.806;2023-02-15T13:49:14;19.80;;;11.18;;
46613;SDS011;32338;50.430;6.806;2023-02-15T13:51:49;23.02;;;12.45;;
46613;SDS011;32338;50.430;6.806;2023-02-15T13:54:27;24.45;;;11.18;;
46613;SDS011;32338;50.430;6.806;2023-02-15T13:57:12;18.20;;;9.98;;
46613;SDS011;32338;50.430;6.806;2023-02-15T13:59:54;19.33;;;11.27;;
46613;SDS011;32338;50.430;6.806;2023-02-15T14:05:49;18.52;;;10.27;;
46613;SDS011;32338;50.430;6.806;2023-02-15T14:08:31;17.38;;;10.82;;
46613;SDS011;32338;50.430;6.806;2023-02-15T14:11:06;18.80;;;10.02;;
46613;SDS011;32338;50.430;6.806;2023-02-15T14:13:43;21.92;;;12.00;;
46613;SDS011;32338;50.430;6.806;2023-02-15T14:16:20;24.60;;;12.07;;
46613;SDS011;32338;50.430;6.806;2023-02-15T14:18:59;21.25;;;11.95;;
46613;SDS011;32338;50.430;6.806;2023-02-15T14:21:37;23.50;;;12.55;;
46613;SDS011;32338;50.430;6.806;2023-02-15T14:24:15;27.25;;;12.02;;
46613;SDS011;32338;50.430;6.806;2023-02-15T14:26:52;23.50;;;12.25;;
46613;SDS011;32338;50.430;6.806;2023-02-15T14:32:04;25.02;;;11.55;;
46613;SDS011;32338;50.430;6.806;2023-02-15T14:34:36;26.08;;;12.13;;
46613;SDS011;32338;50.430;6.806;2023-02-15T14:37:13;24.92;;;13.02;;
46613;SDS011;32338;50.430;6.806;2023-02-15T14:39:47;20.52;;;12.15;;
46613;SDS011;32338;50.430;6.806;2023-02-15T14:42:37;26.00;;;13.38;;
46613;SDS011;32338;50.430;6.806;2023-02-15T14:45:16;21.40;;;10.93;;
46613;SDS011;32338;50.430;6.806;2023-02-15T14:47:47;19.08;;;10.40;;
46613;SDS011;32338;50.430;6.806;2023-02-15T14:53:16;19.50;;;10.38;;
46613;SDS011;32338;50.430;6.806;2023-02-15T14:56:04;22.83;;;10.45;;
46613;SDS011;32338;50.430;6.806;2023-02-15T14:58:33;16.67;;;10.35;;
46613;SDS011;32338;50.430;6.806;2023-02-15T15:01:03;16.67;;;10.00;;
46613;SDS011;32338;50.430;6.806;2023-02-15T15:03:32;17.02;;;9.80;;
46613;SDS011;32338;50.430;6.806;2023-02-15T15:06:02;19.83;;;10.45;;
46613;SDS011;32338;50.430;6.806;2023-02-15T15:08:33;17.00;;;9.88;;
46613;SDS011;32338;50.430;6.806;2023-02-15T15:14:09;21.95;;;10.50;;